sensor_id;sensor_type;location;lat;lon;timestamp;P1;durP1;ratioP1;P2;durP2;ratioP2
70505;SDS011;58032;49.820;6.274;2023-12-29T00:01:48;10.80;;;1.45;;
70505;SDS011;58032;49.820;6.274;2023-12-29T00:04:15;7.22;;;1.02;;
70505;SDS011;58032;49.820;6.274;2023-12-29T00:06:42;3.63;;;1.08;;
70505;SDS011;58032;49.820;6.274;2023-12-29T00:09:12;5.27;;;1.17;;
70505;SDS011;58032;49.820;6.274;2023-12-29T00:11:39;5.07;;;1.10;;
70505;SDS011;58032;49.820;6.274;2023-12-29T00:14:06;5.95;;;1.17;;
70505;SDS011;58032;49.820;6.274;2023-12-29T00:16:32;4.13;;;1.10;;
70505;SDS011;58032;49.820;6.274;2023-12-29T00:18:59;4.07;;;1.10;;
70505;SDS011;58032;49.820;6.274;2023-12-29T00:21:26;4.47;;;0.97;;
70505;SDS011;58032;49.820;6.274;2023-12-29T00:23:53;5.47;;;1.88;;
70505;SDS011;58032;49.820;6.274;2023-12-29T00:26:19;4.43;;;1.00;;
70505;SDS011;58032;49.820;6.274;2023-12-29T00:28:52;5.93;;;1.08;;
70505;SDS011;58032;49.820;6.274;2023-12-29T00:31:19;4.15;;;1.00;;
70505;SDS011;58032;49.820;6.274;2023-12-29T00:33:45;4.40;;;1.30;;
70505;SDS011;58032;49.820;6.274;2023-12-29T00:36:16;3.58;;;0.80;;
70505;SDS011;58032;49.820;6.274;2023-12-29T00:38:43;8.18;;;1.00;;
70505;SDS011;58032;49.820;6.274;2023-12-29T00:41:09;5.82;;;1.05;;
70505;SDS011;58032;49.820;6.274;2023-12-29T00:43:36;3.85;;;0.77;;
70505;SDS011;58032;49.820;6.274;2023-12-29T00:46:03;7.43;;;1.03;;
70505;SDS011;58032;49.820;6.274;2023-12-29T00:48:31;5.13;;;0.85;;
70505;SDS011;58032;49.820;6.274;2023-12-29T00:51:00;4.60;;;1.00;;
70505;SDS011;58032;49.820;6.274;2023-12-29T00:53:26;3.50;;;0.90;;
70505;SDS011;58032;49.820;6.274;2023-12-29T00:55:53;7.07;;;1.17;;
70505;SDS011;58032;49.820;6.274;2023-12-29T00:58:20;4.13;;;0.80;;
70505;SDS011;58032;49.820;6.274;2023-12-29T01:00:47;6.63;;;1.00;;
70505;SDS011;58032;49.820;6.274;2023-12-29T01:03:14;6.35;;;0.80;;
70505;SDS011;58032;49.820;6.274;2023-12-29T01:05:41;3.55;;;0.93;;
70505;SDS011;58032;49.820;6.274;2023-12-29T01:08:07;3.92;;;1.10;;
70505;SDS011;58032;49.820;6.274;2023-12-29T01:10:35;6.83;;;1.33;;
70505;SDS011;58032;49.820;6.274;2023-12-29T01:13:02;4.30;;;0.98;;
70505;SDS011;58032;49.820;6.274;2023-12-29T01:15:29;5.35;;;1.00;;
70505;SDS011;58032;49.820;6.274;2023-12-29T01:17:56;5.13;;;1.05;;
70505;SDS011;58032;49.820;6.274;2023-12-29T01:20:23;3.63;;;1.05;;
70505;SDS011;58032;49.820;6.274;2023-12-29T01:22:49;3.43;;;1.10;;
70505;SDS011;58032;49.820;6.274;2023-12-29T01:25:16;3.00;;;0.73;;
70505;SDS011;58032;49.820;6.274;2023-12-29T01:27:43;3.65;;;0.90;;
70505;SDS011;58032;49.820;6.274;2023-12-29T01:30:10;4.07;;;0.90;;
70505;SDS011;58032;49.820;6.274;2023-12-29T01:32:37;6.60;;;0.93;;
70505;SDS011;58032;49.820;6.274;2023-12-29T01:35:04;5.60;;;0.80;;
70505;SDS011;58032;49.820;6.274;2023-12-29T01:37:31;4.80;;;0.98;;
70505;SDS011;58032;49.820;6.274;2023-12-29T01:39:58;7.57;;;1.35;;
70505;SDS011;58032;49.820;6.274;2023-12-29T01:42:24;5.03;;;0.93;;
70505;SDS011;58032;49.820;6.274;2023-12-29T01:44:51;3.58;;;0.80;;
70505;SDS011;58032;49.820;6.274;2023-12-29T01:47:20;4.60;;;1.13;;
70505;SDS011;58032;49.820;6.274;2023-12-29T01:49:48;4.95;;;0.95;;
70505;SDS011;58032;49.820;6.274;2023-12-29T01:52:16;3.88;;;0.80;;
70505;SDS011;58032;49.820;6.274;2023-12-29T01:54:45;4.25;;;0.90;;
70505;SDS011;58032;49.820;6.274;2023-12-29T01:57:12;6.85;;;0.80;;
70505;SDS011;58032;49.820;6.274;2023-12-29T01:59:39;4.10;;;0.90;;
70505;SDS011;58032;49.820;6.274;2023-12-29T02:02:07;4.63;;;0.90;;
70505;SDS011;58032;49.820;6.274;2023-12-29T02:04:34;3.42;;;0.70;;
70505;SDS011;58032;49.820;6.274;2023-12-29T02:07:01;6.05;;;0.77;;
70505;SDS011;58032;49.820;6.274;2023-12-29T02:09:27;4.57;;;0.80;;
70505;SDS011;58032;49.820;6.274;2023-12-29T02:11:54;3.43;;;1.30;;
70505;SDS011;58032;49.820;6.274;2023-12-29T02:14:23;4.22;;;0.75;;
70505;SDS011;58032;49.820;6.274;2023-12-29T02:16:52;6.68;;;0.80;;
70505;SDS011;58032;49.820;6.274;2023-12-29T02:22:00;4.68;;;0.85;;
70505;SDS011;58032;49.820;6.274;2023-12-29T02:24:27;4.23;;;0.90;;
70505;SDS011;58032;49.820;6.274;2023-12-29T02:26:58;6.18;;;1.05;;
70505;SDS011;58032;49.820;6.274;2023-12-29T02:29:29;5.75;;;0.90;;
70505;SDS011;58032;49.820;6.274;2023-12-29T02:31:56;5.22;;;1.10;;
70505;SDS011;58032;49.820;6.274;2023-12-29T02:34:25;5.70;;;0.95;;
70505;SDS011;58032;49.820;6.274;2023-12-29T02:36:55;5.03;;;1.53;;
70505;SDS011;58032;49.820;6.274;2023-12-29T02:39:23;4.10;;;0.55;;
70505;SDS011;58032;49.820;6.274;2023-12-29T02:41:50;4.38;;;0.80;;
70505;SDS011;58032;49.820;6.274;2023-12-29T02:44:16;4.28;;;1.02;;
70505;SDS011;58032;49.820;6.274;2023-12-29T02:46:43;6.32;;;0.93;;
70505;SDS011;58032;49.820;6.274;2023-12-29T02:49:11;2.83;;;0.70;;
70505;SDS011;58032;49.820;6.274;2023-12-29T02:51:39;4.78;;;0.85;;
70505;SDS011;58032;49.820;6.274;2023-12-29T02:54:06;3.70;;;0.68;;
70505;SDS011;58032;49.820;6.274;2023-12-29T02:56:34;2.50;;;0.77;;
70505;SDS011;58032;49.820;6.274;2023-12-29T02:59:02;4.32;;;1.10;;
70505;SDS011;58032;49.820;6.274;2023-12-29T03:01:29;6.30;;;1.03;;
70505;SDS011;58032;49.820;6.274;2023-12-29T03:03:56;3.90;;;1.05;;
70505;SDS011;58032;49.820;6.274;2023-12-29T03:06:23;3.17;;;0.90;;
70505;SDS011;58032;49.820;6.274;2023-12-29T03:08:51;4.75;;;0.98;;
70505;SDS011;58032;49.820;6.274;2023-12-29T03:11:18;5.25;;;1.30;;
70505;SDS011;58032;49.820;6.274;2023-12-29T03:13:45;7.63;;;1.00;;
70505;SDS011;58032;49.820;6.274;2023-12-29T03:16:12;3.85;;;0.90;;
70505;SDS011;58032;49.820;6.274;2023-12-29T03:18:38;1.85;;;0.60;;
70505;SDS011;58032;49.820;6.274;2023-12-29T03:21:07;4.22;;;1.00;;
70505;SDS011;58032;49.820;6.274;2023-12-29T03:23:35;5.40;;;1.10;;
70505;SDS011;58032;49.820;6.274;2023-12-29T03:26:02;5.97;;;1.10;;
70505;SDS011;58032;49.820;6.274;2023-12-29T03:28:29;6.50;;;1.20;;
70505;SDS011;58032;49.820;6.274;2023-12-29T03:30:56;4.97;;;0.82;;
70505;SDS011;58032;49.820;6.274;2023-12-29T03:33:23;3.20;;;0.95;;
70505;SDS011;58032;49.820;6.274;2023-12-29T03:35:50;4.32;;;0.95;;
70505;SDS011;58032;49.820;6.274;2023-12-29T03:38:16;5.63;;;0.80;;
70505;SDS011;58032;49.820;6.274;2023-12-29T03:40:43;3.55;;;1.00;;
70505;SDS011;58032;49.820;6.274;2023-12-29T03:43:11;5.25;;;1.10;;
70505;SDS011;58032;49.820;6.274;2023-12-29T03:45:38;4.35;;;1.00;;
70505;SDS011;58032;49.820;6.274;2023-12-29T03:48:05;5.70;;;0.70;;
70505;SDS011;58032;49.820;6.274;2023-12-29T03:50:32;5.33;;;1.10;;
70505;SDS011;58032;49.820;6.274;2023-12-29T03:52:58;3.58;;;0.70;;
70505;SDS011;58032;49.820;6.274;2023-12-29T03:55:25;7.60;;;1.00;;
70505;SDS011;58032;49.820;6.274;2023-12-29T03:57:54;4.28;;;0.98;;
70505;SDS011;58032;49.820;6.274;2023-12-29T04:00:21;5.90;;;0.80;;
70505;SDS011;58032;49.820;6.274;2023-12-29T04:02:49;4.90;;;0.80;;
70505;SDS011;58032;49.820;6.274;2023-12-29T04:05:16;5.38;;;1.00;;
70505;SDS011;58032;49.820;6.274;2023-12-29T04:07:43;6.28;;;1.15;;
70505;SDS011;58032;49.820;6.274;2023-12-29T04:10:10;4.32;;;0.85;;
70505;SDS011;58032;49.820;6.274;2023-12-29T04:12:37;6.72;;;1.17;;
70505;SDS011;58032;49.820;6.274;2023-12-29T04:15:04;5.03;;;1.00;;
70505;SDS011;58032;49.820;6.274;2023-12-29T04:17:31;3.80;;;0.73;;
70505;SDS011;58032;49.820;6.274;2023-12-29T04:19:57;8.38;;;1.20;;
70505;SDS011;58032;49.820;6.274;2023-12-29T04:22:24;5.10;;;1.85;;
70505;SDS011;58032;49.820;6.274;2023-12-29T04:24:51;4.88;;;1.05;;
70505;SDS011;58032;49.820;6.274;2023-12-29T04:27:18;6.13;;;1.00;;
70505;SDS011;58032;49.820;6.274;2023-12-29T04:29:45;5.45;;;0.90;;
70505;SDS011;58032;49.820;6.274;2023-12-29T04:32:12;5.32;;;1.00;;
70505;SDS011;58032;49.820;6.274;2023-12-29T04:34:38;4.88;;;0.88;;
70505;SDS011;58032;49.820;6.274;2023-12-29T04:37:05;2.92;;;0.50;;
70505;SDS011;58032;49.820;6.274;2023-12-29T04:39:32;4.77;;;0.67;;
70505;SDS011;58032;49.820;6.274;2023-12-29T04:41:59;7.82;;;1.00;;
70505;SDS011;58032;49.820;6.274;2023-12-29T04:44:26;3.22;;;0.85;;
70505;SDS011;58032;49.820;6.274;2023-12-29T04:46:53;5.82;;;0.90;;
70505;SDS011;58032;49.820;6.274;2023-12-29T04:49:19;4.88;;;1.05;;
70505;SDS011;58032;49.820;6.274;2023-12-29T04:51:46;6.47;;;0.93;;
70505;SDS011;58032;49.820;6.274;2023-12-29T04:54:15;4.90;;;1.08;;
70505;SDS011;58032;49.820;6.274;2023-12-29T04:56:42;4.43;;;0.63;;
70505;SDS011;58032;49.820;6.274;2023-12-29T04:59:08;4.20;;;1.00;;
70505;SDS011;58032;49.820;6.274;2023-12-29T05:01:35;7.10;;;0.75;;
70505;SDS011;58032;49.820;6.274;2023-12-29T05:04:02;6.77;;;0.83;;
70505;SDS011;58032;49.820;6.274;2023-12-29T05:06:29;5.40;;;1.20;;
70505;SDS011;58032;49.820;6.274;2023-12-29T05:08:56;7.15;;;0.77;;
70505;SDS011;58032;49.820;6.274;2023-12-29T05:11:23;5.07;;;0.80;;
70505;SDS011;58032;49.820;6.274;2023-12-29T05:13:49;9.18;;;0.77;;
70505;SDS011;58032;49.820;6.274;2023-12-29T05:16:16;8.80;;;1.10;;
70505;SDS011;58032;49.820;6.274;2023-12-29T05:18:43;7.68;;;0.82;;
70505;SDS011;58032;49.820;6.274;2023-12-29T05:21:19;4.75;;;0.80;;
70505;SDS011;58032;49.820;6.274;2023-12-29T05:23:47;8.68;;;0.70;;
70505;SDS011;58032;49.820;6.274;2023-12-29T05:26:14;4.07;;;0.80;;
70505;SDS011;58032;49.820;6.274;2023-12-29T05:28:41;2.53;;;0.73;;
70505;SDS011;58032;49.820;6.274;2023-12-29T05:31:08;2.88;;;0.43;;
70505;SDS011;58032;49.820;6.274;2023-12-29T05:33:35;4.82;;;0.93;;
70505;SDS011;58032;49.820;6.274;2023-12-29T05:36:06;5.65;;;0.70;;
70505;SDS011;58032;49.820;6.274;2023-12-29T05:38:34;2.28;;;0.52;;
70505;SDS011;58032;49.820;6.274;2023-12-29T05:41:02;4.77;;;0.67;;
70505;SDS011;58032;49.820;6.274;2023-12-29T05:43:31;5.68;;;0.52;;
70505;SDS011;58032;49.820;6.274;2023-12-29T05:45:59;3.05;;;0.60;;
70505;SDS011;58032;49.820;6.274;2023-12-29T05:48:26;12.60;;;1.23;;
70505;SDS011;58032;49.820;6.274;2023-12-29T05:50:53;2.47;;;0.52;;
70505;SDS011;58032;49.820;6.274;2023-12-29T05:53:20;9.57;;;0.83;;
70505;SDS011;58032;49.820;6.274;2023-12-29T05:55:46;5.35;;;0.47;;
70505;SDS011;58032;49.820;6.274;2023-12-29T05:58:13;12.25;;;1.00;;
70505;SDS011;58032;49.820;6.274;2023-12-29T06:00:40;5.07;;;1.00;;
70505;SDS011;58032;49.820;6.274;2023-12-29T06:03:07;5.75;;;0.63;;
70505;SDS011;58032;49.820;6.274;2023-12-29T06:05:34;4.07;;;0.80;;
70505;SDS011;58032;49.820;6.274;2023-12-29T06:08:01;8.90;;;0.75;;
70505;SDS011;58032;49.820;6.274;2023-12-29T06:10:28;6.80;;;1.00;;
70505;SDS011;58032;49.820;6.274;2023-12-29T06:12:55;2.03;;;0.40;;
70505;SDS011;58032;49.820;6.274;2023-12-29T06:15:21;3.35;;;0.60;;
70505;SDS011;58032;49.820;6.274;2023-12-29T06:17:48;5.07;;;0.60;;
70505;SDS011;58032;49.820;6.274;2023-12-29T06:20:15;17.90;;;1.05;;
70505;SDS011;58032;49.820;6.274;2023-12-29T06:22:42;2.42;;;0.50;;
70505;SDS011;58032;49.820;6.274;2023-12-29T06:25:09;3.28;;;0.70;;
70505;SDS011;58032;49.820;6.274;2023-12-29T06:27:37;5.85;;;0.75;;
70505;SDS011;58032;49.820;6.274;2023-12-29T06:30:05;3.83;;;0.33;;
70505;SDS011;58032;49.820;6.274;2023-12-29T06:32:32;4.10;;;0.43;;
70505;SDS011;58032;49.820;6.274;2023-12-29T06:34:59;5.00;;;0.75;;
70505;SDS011;58032;49.820;6.274;2023-12-29T06:37:26;6.28;;;1.13;;
70505;SDS011;58032;49.820;6.274;2023-12-29T06:39:53;4.15;;;0.50;;
70505;SDS011;58032;49.820;6.274;2023-12-29T06:42:20;4.00;;;0.40;;
70505;SDS011;58032;49.820;6.274;2023-12-29T06:44:46;3.40;;;0.57;;
70505;SDS011;58032;49.820;6.274;2023-12-29T06:47:13;6.20;;;0.93;;
70505;SDS011;58032;49.820;6.274;2023-12-29T06:49:40;5.00;;;0.60;;
70505;SDS011;58032;49.820;6.274;2023-12-29T06:52:07;4.35;;;0.55;;
70505;SDS011;58032;49.820;6.274;2023-12-29T06:54:34;4.13;;;0.47;;
70505;SDS011;58032;49.820;6.274;2023-12-29T06:57:01;5.07;;;0.60;;
70505;SDS011;58032;49.820;6.274;2023-12-29T06:59:28;4.60;;;0.88;;
70505;SDS011;58032;49.820;6.274;2023-12-29T07:01:55;4.95;;;0.38;;
70505;SDS011;58032;49.820;6.274;2023-12-29T07:04:21;4.63;;;0.70;;
70505;SDS011;58032;49.820;6.274;2023-12-29T07:06:48;3.27;;;0.40;;
70505;SDS011;58032;49.820;6.274;2023-12-29T07:09:15;5.38;;;0.93;;
70505;SDS011;58032;49.820;6.274;2023-12-29T07:11:47;2.58;;;0.47;;
70505;SDS011;58032;49.820;6.274;2023-12-29T07:14:14;6.13;;;0.40;;
70505;SDS011;58032;49.820;6.274;2023-12-29T07:16:40;3.15;;;0.43;;
70505;SDS011;58032;49.820;6.274;2023-12-29T07:19:07;2.70;;;0.53;;
70505;SDS011;58032;49.820;6.274;2023-12-29T07:21:34;6.25;;;0.68;;
70505;SDS011;58032;49.820;6.274;2023-12-29T07:24:01;6.47;;;0.95;;
70505;SDS011;58032;49.820;6.274;2023-12-29T07:26:28;4.05;;;0.68;;
70505;SDS011;58032;49.820;6.274;2023-12-29T07:28:55;5.75;;;0.65;;
70505;SDS011;58032;49.820;6.274;2023-12-29T07:31:22;9.17;;;1.07;;
70505;SDS011;58032;49.820;6.274;2023-12-29T07:33:49;7.82;;;0.82;;
70505;SDS011;58032;49.820;6.274;2023-12-29T07:36:16;4.93;;;0.60;;
70505;SDS011;58032;49.820;6.274;2023-12-29T07:38:43;4.45;;;0.50;;
70505;SDS011;58032;49.820;6.274;2023-12-29T07:41:10;3.28;;;0.38;;
70505;SDS011;58032;49.820;6.274;2023-12-29T07:43:37;4.07;;;0.73;;
70505;SDS011;58032;49.820;6.274;2023-12-29T07:46:04;4.20;;;0.57;;
70505;SDS011;58032;49.820;6.274;2023-12-29T07:48:31;3.45;;;0.63;;
70505;SDS011;58032;49.820;6.274;2023-12-29T07:50:58;4.07;;;0.55;;
70505;SDS011;58032;49.820;6.274;2023-12-29T07:53:30;3.35;;;0.52;;
70505;SDS011;58032;49.820;6.274;2023-12-29T07:55:57;7.23;;;1.10;;
70505;SDS011;58032;49.820;6.274;2023-12-29T07:58:24;1.73;;;0.40;;
70505;SDS011;58032;49.820;6.274;2023-12-29T08:00:51;7.53;;;1.00;;
70505;SDS011;58032;49.820;6.274;2023-12-29T08:03:18;6.05;;;0.68;;
70505;SDS011;58032;49.820;6.274;2023-12-29T08:05:44;9.82;;;1.05;;
70505;SDS011;58032;49.820;6.274;2023-12-29T08:08:12;4.40;;;0.47;;
70505;SDS011;58032;49.820;6.274;2023-12-29T08:10:39;5.15;;;0.77;;
70505;SDS011;58032;49.820;6.274;2023-12-29T08:13:06;4.28;;;0.50;;
70505;SDS011;58032;49.820;6.274;2023-12-29T08:15:35;3.55;;;0.40;;
70505;SDS011;58032;49.820;6.274;2023-12-29T08:18:06;3.22;;;0.75;;
70505;SDS011;58032;49.820;6.274;2023-12-29T08:20:33;4.53;;;0.57;;
70505;SDS011;58032;49.820;6.274;2023-12-29T08:23:01;6.53;;;0.60;;
70505;SDS011;58032;49.820;6.274;2023-12-29T08:25:29;3.80;;;0.55;;
70505;SDS011;58032;49.820;6.274;2023-12-29T08:27:56;4.60;;;0.77;;
70505;SDS011;58032;49.820;6.274;2023-12-29T08:30:23;5.10;;;0.50;;
70505;SDS011;58032;49.820;6.274;2023-12-29T08:32:50;2.90;;;0.70;;
70505;SDS011;58032;49.820;6.274;2023-12-29T08:35:17;3.13;;;0.57;;
70505;SDS011;58032;49.820;6.274;2023-12-29T08:37:44;2.63;;;0.60;;
70505;SDS011;58032;49.820;6.274;2023-12-29T08:40:10;4.78;;;0.60;;
70505;SDS011;58032;49.820;6.274;2023-12-29T08:42:37;3.78;;;0.52;;
70505;SDS011;58032;49.820;6.274;2023-12-29T08:45:04;4.07;;;0.50;;
70505;SDS011;58032;49.820;6.274;2023-12-29T08:47:32;5.03;;;1.30;;
70505;SDS011;58032;49.820;6.274;2023-12-29T08:49:58;3.15;;;0.40;;
70505;SDS011;58032;49.820;6.274;2023-12-29T08:52:25;4.35;;;0.63;;
70505;SDS011;58032;49.820;6.274;2023-12-29T08:54:53;5.03;;;0.57;;
70505;SDS011;58032;49.820;6.274;2023-12-29T08:57:19;2.10;;;0.43;;
70505;SDS011;58032;49.820;6.274;2023-12-29T08:59:46;4.55;;;0.32;;
70505;SDS011;58032;49.820;6.274;2023-12-29T09:02:14;2.10;;;0.32;;
70505;SDS011;58032;49.820;6.274;2023-12-29T09:04:41;4.07;;;0.65;;
70505;SDS011;58032;49.820;6.274;2023-12-29T09:07:08;1.90;;;0.25;;
70505;SDS011;58032;49.820;6.274;2023-12-29T09:09:35;4.33;;;0.60;;
70505;SDS011;58032;49.820;6.274;2023-12-29T09:12:02;2.08;;;0.40;;
70505;SDS011;58032;49.820;6.274;2023-12-29T09:14:29;4.88;;;0.30;;
70505;SDS011;58032;49.820;6.274;2023-12-29T09:16:59;2.75;;;0.40;;
70505;SDS011;58032;49.820;6.274;2023-12-29T09:19:25;2.00;;;0.30;;
70505;SDS011;58032;49.820;6.274;2023-12-29T09:21:53;1.90;;;0.57;;
70505;SDS011;58032;49.820;6.274;2023-12-29T09:24:20;2.13;;;0.22;;
70505;SDS011;58032;49.820;6.274;2023-12-29T09:26:47;5.28;;;0.50;;
70505;SDS011;58032;49.820;6.274;2023-12-29T09:29:13;4.22;;;0.32;;
70505;SDS011;58032;49.820;6.274;2023-12-29T09:31:40;1.35;;;0.22;;
70505;SDS011;58032;49.820;6.274;2023-12-29T09:34:08;1.50;;;0.20;;
70505;SDS011;58032;49.820;6.274;2023-12-29T09:36:35;2.78;;;0.40;;
70505;SDS011;58032;49.820;6.274;2023-12-29T09:39:02;2.40;;;0.25;;
70505;SDS011;58032;49.820;6.274;2023-12-29T09:41:29;1.70;;;0.30;;
70505;SDS011;58032;49.820;6.274;2023-12-29T09:43:57;5.28;;;0.50;;
70505;SDS011;58032;49.820;6.274;2023-12-29T09:46:24;4.83;;;0.30;;
70505;SDS011;58032;49.820;6.274;2023-12-29T09:48:52;2.65;;;0.30;;
70505;SDS011;58032;49.820;6.274;2023-12-29T09:51:22;2.75;;;0.20;;
70505;SDS011;58032;49.820;6.274;2023-12-29T09:53:50;1.88;;;0.43;;
70505;SDS011;58032;49.820;6.274;2023-12-29T09:56:19;1.95;;;0.22;;
70505;SDS011;58032;49.820;6.274;2023-12-29T09:58:48;2.07;;;0.40;;
70505;SDS011;58032;49.820;6.274;2023-12-29T10:01:17;3.25;;;0.40;;
70505;SDS011;58032;49.820;6.274;2023-12-29T10:03:44;3.40;;;0.28;;
70505;SDS011;58032;49.820;6.274;2023-12-29T10:06:15;1.43;;;0.20;;
70505;SDS011;58032;49.820;6.274;2023-12-29T10:08:45;1.73;;;0.57;;
70505;SDS011;58032;49.820;6.274;2023-12-29T10:11:12;1.77;;;0.20;;
70505;SDS011;58032;49.820;6.274;2023-12-29T10:13:40;3.58;;;0.40;;
70505;SDS011;58032;49.820;6.274;2023-12-29T10:16:13;1.88;;;0.30;;
70505;SDS011;58032;49.820;6.274;2023-12-29T10:18:45;3.63;;;0.40;;
70505;SDS011;58032;49.820;6.274;2023-12-29T10:23:42;1.80;;;0.30;;
70505;SDS011;58032;49.820;6.274;2023-12-29T10:26:14;2.50;;;0.20;;
70505;SDS011;58032;49.820;6.274;2023-12-29T10:28:41;4.00;;;0.68;;
70505;SDS011;58032;49.820;6.274;2023-12-29T10:31:09;3.63;;;0.97;;
70505;SDS011;58032;49.820;6.274;2023-12-29T10:33:36;2.17;;;0.60;;
70505;SDS011;58032;49.820;6.274;2023-12-29T10:36:03;1.73;;;0.20;;
70505;SDS011;58032;49.820;6.274;2023-12-29T10:38:33;1.60;;;0.20;;
70505;SDS011;58032;49.820;6.274;2023-12-29T10:41:13;1.98;;;0.30;;
70505;SDS011;58032;49.820;6.274;2023-12-29T10:43:41;1.13;;;0.20;;
70505;SDS011;58032;49.820;6.274;2023-12-29T10:46:09;3.72;;;0.22;;
70505;SDS011;58032;49.820;6.274;2023-12-29T10:48:36;1.67;;;0.20;;
70505;SDS011;58032;49.820;6.274;2023-12-29T10:51:04;3.45;;;0.20;;
70505;SDS011;58032;49.820;6.274;2023-12-29T10:53:31;1.30;;;0.28;;
70505;SDS011;58032;49.820;6.274;2023-12-29T10:55:58;2.40;;;0.30;;
70505;SDS011;58032;49.820;6.274;2023-12-29T10:58:25;2.10;;;0.47;;
70505;SDS011;58032;49.820;6.274;2023-12-29T11:00:56;2.80;;;0.52;;
70505;SDS011;58032;49.820;6.274;2023-12-29T11:03:23;1.40;;;0.20;;
70505;SDS011;58032;49.820;6.274;2023-12-29T11:05:51;3.33;;;0.40;;
70505;SDS011;58032;49.820;6.274;2023-12-29T11:08:18;1.20;;;0.20;;
70505;SDS011;58032;49.820;6.274;2023-12-29T11:10:47;1.40;;;0.20;;
70505;SDS011;58032;49.820;6.274;2023-12-29T11:13:15;3.22;;;0.40;;
70505;SDS011;58032;49.820;6.274;2023-12-29T11:15:44;2.22;;;0.20;;
70505;SDS011;58032;49.820;6.274;2023-12-29T11:18:15;2.20;;;0.22;;
70505;SDS011;58032;49.820;6.274;2023-12-29T11:20:44;1.03;;;0.10;;
70505;SDS011;58032;49.820;6.274;2023-12-29T11:23:11;1.65;;;0.20;;
70505;SDS011;58032;49.820;6.274;2023-12-29T11:25:43;2.03;;;0.40;;
70505;SDS011;58032;49.820;6.274;2023-12-29T11:28:11;1.67;;;0.28;;
70505;SDS011;58032;49.820;6.274;2023-12-29T11:30:38;1.42;;;0.17;;
70505;SDS011;58032;49.820;6.274;2023-12-29T11:33:09;2.27;;;0.30;;
70505;SDS011;58032;49.820;6.274;2023-12-29T11:35:43;3.83;;;0.20;;
70505;SDS011;58032;49.820;6.274;2023-12-29T11:40:59;3.65;;;0.40;;
70505;SDS011;58032;49.820;6.274;2023-12-29T11:43:28;2.03;;;0.35;;
70505;SDS011;58032;49.820;6.274;2023-12-29T11:45:55;2.90;;;0.40;;
70505;SDS011;58032;49.820;6.274;2023-12-29T11:48:52;2.10;;;0.40;;
70505;SDS011;58032;49.820;6.274;2023-12-29T11:54:00;2.47;;;0.30;;
70505;SDS011;58032;49.820;6.274;2023-12-29T11:56:30;1.77;;;0.20;;
70505;SDS011;58032;49.820;6.274;2023-12-29T11:59:06;1.57;;;0.20;;
70505;SDS011;58032;49.820;6.274;2023-12-29T12:01:38;1.40;;;0.20;;
70505;SDS011;58032;49.820;6.274;2023-12-29T12:04:33;2.33;;;0.40;;
70505;SDS011;58032;49.820;6.274;2023-12-29T12:06:51;2.63;;;0.28;;
70505;SDS011;58032;49.820;6.274;2023-12-29T12:09:21;3.67;;;0.50;;
70505;SDS011;58032;49.820;6.274;2023-12-29T12:11:49;2.03;;;0.40;;
70505;SDS011;58032;49.820;6.274;2023-12-29T12:17:01;2.42;;;0.40;;
70505;SDS011;58032;49.820;6.274;2023-12-29T12:19:29;2.05;;;0.40;;
70505;SDS011;58032;49.820;6.274;2023-12-29T12:21:58;4.70;;;0.57;;
70505;SDS011;58032;49.820;6.274;2023-12-29T12:24:26;2.47;;;0.40;;
70505;SDS011;58032;49.820;6.274;2023-12-29T12:26:54;4.00;;;0.38;;
70505;SDS011;58032;49.820;6.274;2023-12-29T12:29:21;3.03;;;0.40;;
70505;SDS011;58032;49.820;6.274;2023-12-29T12:31:54;3.85;;;0.38;;
70505;SDS011;58032;49.820;6.274;2023-12-29T12:34:22;9.57;;;0.65;;
70505;SDS011;58032;49.820;6.274;2023-12-29T12:36:50;3.23;;;0.50;;
70505;SDS011;58032;49.820;6.274;2023-12-29T12:39:17;2.92;;;0.40;;
70505;SDS011;58032;49.820;6.274;2023-12-29T12:41:44;4.38;;;0.40;;
70505;SDS011;58032;49.820;6.274;2023-12-29T12:44:15;6.43;;;0.98;;
70505;SDS011;58032;49.820;6.274;2023-12-29T12:46:51;2.40;;;0.40;;
70505;SDS011;58032;49.820;6.274;2023-12-29T12:49:23;6.97;;;0.50;;
70505;SDS011;58032;49.820;6.274;2023-12-29T12:51:50;5.78;;;0.60;;
70505;SDS011;58032;49.820;6.274;2023-12-29T12:54:17;3.65;;;0.70;;
70505;SDS011;58032;49.820;6.274;2023-12-29T12:56:45;6.85;;;0.60;;
70505;SDS011;58032;49.820;6.274;2023-12-29T12:59:13;3.17;;;0.57;;
70505;SDS011;58032;49.820;6.274;2023-12-29T13:01:40;5.57;;;0.50;;
70505;SDS011;58032;49.820;6.274;2023-12-29T13:04:07;5.68;;;0.60;;
70505;SDS011;58032;49.820;6.274;2023-12-29T13:06:34;3.05;;;0.77;;
70505;SDS011;58032;49.820;6.274;2023-12-29T13:09:05;5.05;;;0.30;;
70505;SDS011;58032;49.820;6.274;2023-12-29T13:11:38;5.63;;;0.73;;
70505;SDS011;58032;49.820;6.274;2023-12-29T13:14:05;4.43;;;0.47;;
70505;SDS011;58032;49.820;6.274;2023-12-29T13:16:37;4.82;;;0.57;;
70505;SDS011;58032;49.820;6.274;2023-12-29T13:19:14;6.95;;;0.70;;
70505;SDS011;58032;49.820;6.274;2023-12-29T13:21:41;4.63;;;0.60;;
70505;SDS011;58032;49.820;6.274;2023-12-29T13:24:08;2.55;;;0.30;;
70505;SDS011;58032;49.820;6.274;2023-12-29T13:26:35;3.13;;;0.60;;
70505;SDS011;58032;49.820;6.274;2023-12-29T13:29:03;3.33;;;0.30;;
70505;SDS011;58032;49.820;6.274;2023-12-29T13:31:30;3.00;;;0.40;;
70505;SDS011;58032;49.820;6.274;2023-12-29T13:33:58;3.00;;;0.40;;
70505;SDS011;58032;49.820;6.274;2023-12-29T13:36:28;3.17;;;0.30;;
70505;SDS011;58032;49.820;6.274;2023-12-29T13:39:05;6.37;;;0.80;;
70505;SDS011;58032;49.820;6.274;2023-12-29T13:41:34;5.22;;;0.50;;
70505;SDS011;58032;49.820;6.274;2023-12-29T13:44:02;5.85;;;0.40;;
70505;SDS011;58032;49.820;6.274;2023-12-29T13:46:29;4.15;;;0.52;;
70505;SDS011;58032;49.820;6.274;2023-12-29T13:48:57;3.15;;;0.43;;
70505;SDS011;58032;49.820;6.274;2023-12-29T13:51:25;2.63;;;0.40;;
70505;SDS011;58032;49.820;6.274;2023-12-29T13:53:58;2.58;;;0.90;;
70505;SDS011;58032;49.820;6.274;2023-12-29T13:56:26;7.05;;;0.50;;
70505;SDS011;58032;49.820;6.274;2023-12-29T13:58:53;4.55;;;0.30;;
70505;SDS011;58032;49.820;6.274;2023-12-29T14:01:19;4.13;;;0.50;;
70505;SDS011;58032;49.820;6.274;2023-12-29T14:03:48;2.27;;;0.20;;
70505;SDS011;58032;49.820;6.274;2023-12-29T14:06:27;3.72;;;0.30;;
70505;SDS011;58032;49.820;6.274;2023-12-29T14:08:54;3.88;;;0.50;;
70505;SDS011;58032;49.820;6.274;2023-12-29T14:11:21;3.40;;;0.20;;
70505;SDS011;58032;49.820;6.274;2023-12-29T14:13:49;4.85;;;0.35;;
70505;SDS011;58032;49.820;6.274;2023-12-29T14:16:16;3.00;;;0.30;;
70505;SDS011;58032;49.820;6.274;2023-12-29T14:18:53;4.03;;;0.30;;
70505;SDS011;58032;49.820;6.274;2023-12-29T14:21:23;7.30;;;0.55;;
70505;SDS011;58032;49.820;6.274;2023-12-29T14:26:26;2.20;;;0.35;;
70505;SDS011;58032;49.820;6.274;2023-12-29T14:29:03;5.10;;;0.50;;
70505;SDS011;58032;49.820;6.274;2023-12-29T14:31:34;3.13;;;0.40;;
70505;SDS011;58032;49.820;6.274;2023-12-29T14:34:02;2.75;;;0.30;;
70505;SDS011;58032;49.820;6.274;2023-12-29T14:36:30;4.47;;;0.60;;
70505;SDS011;58032;49.820;6.274;2023-12-29T14:38:57;2.45;;;0.50;;
70505;SDS011;58032;49.820;6.274;2023-12-29T14:41:24;4.13;;;0.40;;
70505;SDS011;58032;49.820;6.274;2023-12-29T14:43:51;3.17;;;0.70;;
70505;SDS011;58032;49.820;6.274;2023-12-29T14:46:18;5.70;;;0.50;;
70505;SDS011;58032;49.820;6.274;2023-12-29T14:48:45;2.70;;;0.40;;
70505;SDS011;58032;49.820;6.274;2023-12-29T14:51:13;1.83;;;0.28;;
70505;SDS011;58032;49.820;6.274;2023-12-29T14:53:42;3.50;;;0.50;;
70505;SDS011;58032;49.820;6.274;2023-12-29T14:56:09;4.95;;;0.40;;
70505;SDS011;58032;49.820;6.274;2023-12-29T14:58:36;5.07;;;0.40;;
70505;SDS011;58032;49.820;6.274;2023-12-29T15:01:03;3.83;;;0.63;;
70505;SDS011;58032;49.820;6.274;2023-12-29T15:03:30;2.28;;;0.50;;
70505;SDS011;58032;49.820;6.274;2023-12-29T15:05:58;3.10;;;0.37;;
70505;SDS011;58032;49.820;6.274;2023-12-29T15:08:25;3.20;;;0.40;;